sensor_id;sensor_type;location;lat;lon;timestamp;temperature;humidity
59923;DHT22;45778;51.142;3.732;2023-10-09T00:00:06;15.40;99.90
59923;DHT22;45778;51.142;3.732;2023-10-09T00:02:50;15.40;99.90
59923;DHT22;45778;51.142;3.732;2023-10-09T00:05:16;15.40;99.90
59923;DHT22;45778;51.142;3.732;2023-10-09T00:08:02;15.50;99.90
59923;DHT22;45778;51.142;3.732;2023-10-09T00:10:29;15.50;99.90
59923;DHT22;45778;51.142;3.732;2023-10-09T00:13:01;15.50;99.90
59923;DHT22;45778;51.142;3.732;2023-10-09T00:15:26;15.50;99.90
59923;DHT22;45778;51.142;3.732;2023-10-09T00:17:53;15.50;99.90
59923;DHT22;45778;51.142;3.732;2023-10-09T00:20:21;15.50;99.90
59923;DHT22;45778;51.142;3.732;2023-10-09T00:22:50;15.50;99.90
59923;DHT22;45778;51.142;3.732;2023-10-09T00:25:17;15.50;99.90
59923;DHT22;45778;51.142;3.732;2023-10-09T00:27:55;15.60;99.90
59923;DHT22;45778;51.142;3.732;2023-10-09T00:30:20;15.70;99.90
59923;DHT22;45778;51.142;3.732;2023-10-09T00:32:55;15.70;99.90
59923;DHT22;45778;51.142;3.732;2023-10-09T00:35:23;15.70;99.90
59923;DHT22;45778;51.142;3.732;2023-10-09T00:38:19;15.70;99.90
59923;DHT22;45778;51.142;3.732;2023-10-09T00:40:45;15.80;99.90
59923;DHT22;45778;51.142;3.732;2023-10-09T00:43:13;15.90;99.90
59923;DHT22;45778;51.142;3.732;2023-10-09T00:45:40;15.90;99.90
59923;DHT22;45778;51.142;3.732;2023-10-09T00:48:09;15.90;99.90
59923;DHT22;45778;51.142;3.732;2023-10-09T00:50:35;15.80;99.90
59923;DHT22;45778;51.142;3.732;2023-10-09T00:53:02;15.90;99.90
59923;DHT22;45778;51.142;3.732;2023-10-09T00:55:34;15.80;99.90
59923;DHT22;45778;51.142;3.732;2023-10-09T00:58:05;15.80;99.90
59923;DHT22;45778;51.142;3.732;2023-10-09T01:00:37;15.80;99.90
59923;DHT22;45778;51.142;3.732;2023-10-09T01:03:10;15.70;99.90
59923;DHT22;45778;51.142;3.732;2023-10-09T01:06:01;15.70;99.90
59923;DHT22;45778;51.142;3.732;2023-10-09T01:08:37;15.80;99.90
59923;DHT22;45778;51.142;3.732;2023-10-09T01:13:39;15.90;99.90
59923;DHT22;45778;51.142;3.732;2023-10-09T01:16:18;15.80;99.90
59923;DHT22;45778;51.142;3.732;2023-10-09T01:18:48;15.80;99.90
59923;DHT22;45778;51.142;3.732;2023-10-09T01:21:15;15.80;99.90
59923;DHT22;45778;51.142;3.732;2023-10-09T01:23:41;15.70;99.90
59923;DHT22;45778;51.142;3.732;2023-10-09T01:26:27;15.80;99.90
59923;DHT22;45778;51.142;3.732;2023-10-09T01:28:55;15.70;99.90
59923;DHT22;45778;51.142;3.732;2023-10-09T01:31:24;15.70;99.90
59923;DHT22;45778;51.142;3.732;2023-10-09T01:33:52;15.70;99.90
59923;DHT22;45778;51.142;3.732;2023-10-09T01:36:19;15.60;99.90
59923;DHT22;45778;51.142;3.732;2023-10-09T01:38:59;15.60;99.90
59923;DHT22;45778;51.142;3.732;2023-10-09T01:41:25;15.60;99.90
59923;DHT22;45778;51.142;3.732;2023-10-09T01:43:50;15.60;99.90
59923;DHT22;45778;51.142;3.732;2023-10-09T01:46:20;15.60;99.90
59923;DHT22;45778;51.142;3.732;2023-10-09T01:48:47;15.60;99.90
59923;DHT22;45778;51.142;3.732;2023-10-09T01:51:14;15.60;99.90
59923;DHT22;45778;51.142;3.732;2023-10-09T01:53:43;15.60;99.90
59923;DHT22;45778;51.142;3.732;2023-10-09T01:56:12;15.50;99.90
59923;DHT22;45778;51.142;3.732;2023-10-09T01:58:41;15.60;99.90
59923;DHT22;45778;51.142;3.732;2023-10-09T02:01:08;15.50;99.90
59923;DHT22;45778;51.142;3.732;2023-10-09T02:03:36;15.50;99.90
59923;DHT22;45778;51.142;3.732;2023-10-09T02:06:03;15.60;99.90
59923;DHT22;45778;51.142;3.732;2023-10-09T02:08:30;15.50;99.90
59923;DHT22;45778;51.142;3.732;2023-10-09T02:11:00;15.40;99.90
59923;DHT22;45778;51.142;3.732;2023-10-09T02:13:28;15.40;99.90
59923;DHT22;45778;51.142;3.732;2023-10-09T02:16:00;15.40;99.90
59923;DHT22;45778;51.142;3.732;2023-10-09T02:18:38;15.40;99.90
59923;DHT22;45778;51.142;3.732;2023-10-09T02:21:19;15.40;99.90
59923;DHT22;45778;51.142;3.732;2023-10-09T02:24:06;15.40;99.90
59923;DHT22;45778;51.142;3.732;2023-10-09T02:26:51;15.40;99.90
59923;DHT22;45778;51.142;3.732;2023-10-09T02:29:17;15.40;99.90
59923;DHT22;45778;51.142;3.732;2023-10-09T02:31:43;15.30;99.90
59923;DHT22;45778;51.142;3.732;2023-10-09T02:34:17;15.30;99.90
59923;DHT22;45778;51.142;3.732;2023-10-09T02:36:52;15.20;99.90
59923;DHT22;45778;51.142;3.732;2023-10-09T02:39:31;15.20;99.90
59923;DHT22;45778;51.142;3.732;2023-10-09T02:42:02;15.10;99.90
59923;DHT22;45778;51.142;3.732;2023-10-09T02:44:54;15.10;99.90
59923;DHT22;45778;51.142;3.732;2023-10-09T02:47:21;15.10;99.90
59923;DHT22;45778;51.142;3.732;2023-10-09T02:49:50;15.10;99.90
59923;DHT22;45778;51.142;3.732;2023-10-09T02:52:17;15.00;99.90
59923;DHT22;45778;51.142;3.732;2023-10-09T02:54:51;15.00;99.90
59923;DHT22;45778;51.142;3.732;2023-10-09T02:57:28;15.00;99.90
59923;DHT22;45778;51.142;3.732;2023-10-09T03:00:04;15.00;99.90
59923;DHT22;45778;51.142;3.732;2023-10-09T03:02:45;15.00;99.90
59923;DHT22;45778;51.142;3.732;2023-10-09T03:05:11;14.90;99.90
59923;DHT22;45778;51.142;3.732;2023-10-09T03:07:38;14.90;99.90
59923;DHT22;45778;51.142;3.732;2023-10-09T03:10:06;14.80;99.90
59923;DHT22;45778;51.142;3.732;2023-10-09T03:12:35;14.80;99.90
59923;DHT22;45778;51.142;3.732;2023-10-09T03:15:00;14.80;99.90
59923;DHT22;45778;51.142;3.732;2023-10-09T03:17:27;14.80;99.90
59923;DHT22;45778;51.142;3.732;2023-10-09T03:19:53;14.80;99.90
59923;DHT22;45778;51.142;3.732;2023-10-09T03:22:20;14.80;99.90
59923;DHT22;45778;51.142;3.732;2023-10-09T03:24:45;14.80;99.90
59923;DHT22;45778;51.142;3.732;2023-10-09T03:27:11;14.90;99.90
59923;DHT22;45778;51.142;3.732;2023-10-09T03:29:39;14.90;99.90
59923;DHT22;45778;51.142;3.732;2023-10-09T03:32:05;14.90;99.90
59923;DHT22;45778;51.142;3.732;2023-10-09T03:34:32;14.80;99.90
59923;DHT22;45778;51.142;3.732;2023-10-09T03:36:58;14.90;99.90
59923;DHT22;45778;51.142;3.732;2023-10-09T03:39:31;14.90;99.90
59923;DHT22;45778;51.142;3.732;2023-10-09T03:42:07;14.90;99.90
59923;DHT22;45778;51.142;3.732;2023-10-09T03:44:38;14.90;99.90
59923;DHT22;45778;51.142;3.732;2023-10-09T03:47:10;15.00;99.90
59923;DHT22;45778;51.142;3.732;2023-10-09T03:49:36;15.00;99.90
59923;DHT22;45778;51.142;3.732;2023-10-09T03:52:05;15.00;99.90
59923;DHT22;45778;51.142;3.732;2023-10-09T03:54:32;15.00;99.90
59923;DHT22;45778;51.142;3.732;2023-10-09T03:57:00;15.00;99.90
59923;DHT22;45778;51.142;3.732;2023-10-09T03:59:27;15.00;99.90
59923;DHT22;45778;51.142;3.732;2023-10-09T04:01:56;15.00;99.90
59923;DHT22;45778;51.142;3.732;2023-10-09T04:04:23;15.00;99.90
59923;DHT22;45778;51.142;3.732;2023-10-09T04:06:49;15.00;99.90
59923;DHT22;45778;51.142;3.732;2023-10-09T04:09:17;14.90;99.90
59923;DHT22;45778;51.142;3.732;2023-10-09T04:11:50;15.00;99.90
59923;DHT22;45778;51.142;3.732;2023-10-09T04:14:39;15.00;99.90
59923;DHT22;45778;51.142;3.732;2023-10-09T04:17:23;14.90;99.90
59923;DHT22;45778;51.142;3.732;2023-10-09T04:19:55;14.90;99.90
59923;DHT22;45778;51.142;3.732;2023-10-09T04:22:40;15.00;99.90
59923;DHT22;45778;51.142;3.732;2023-10-09T04:25:24;15.00;99.90
59923;DHT22;45778;51.142;3.732;2023-10-09T04:30:26;15.00;99.90
59923;DHT22;45778;51.142;3.732;2023-10-09T04:32:51;15.10;99.90
59923;DHT22;45778;51.142;3.732;2023-10-09T04:35:20;15.00;99.90
59923;DHT22;45778;51.142;3.732;2023-10-09T04:37:50;15.00;99.90
59923;DHT22;45778;51.142;3.732;2023-10-09T04:40:28;15.00;99.90
59923;DHT22;45778;51.142;3.732;2023-10-09T04:43:14;14.90;99.90
59923;DHT22;45778;51.142;3.732;2023-10-09T04:45:47;14.80;99.90
59923;DHT22;45778;51.142;3.732;2023-10-09T04:48:32;14.80;99.90
59923;DHT22;45778;51.142;3.732;2023-10-09T04:51:01;14.70;99.90
59923;DHT22;45778;51.142;3.732;2023-10-09T04:53:46;14.80;99.90
59923;DHT22;45778;51.142;3.732;2023-10-09T04:56:30;14.80;99.90
59923;DHT22;45778;51.142;3.732;2023-10-09T04:58:58;14.90;99.90
59923;DHT22;45778;51.142;3.732;2023-10-09T05:01:29;14.90;99.90
59923;DHT22;45778;51.142;3.732;2023-10-09T05:04:12;14.80;99.90
59923;DHT22;45778;51.142;3.732;2023-10-09T05:06:56;14.80;99.90
59923;DHT22;45778;51.142;3.732;2023-10-09T05:09:22;14.80;99.90
59923;DHT22;45778;51.142;3.732;2023-10-09T05:11:48;14.70;99.90
59923;DHT22;45778;51.142;3.732;2023-10-09T05:14:17;14.70;99.90
59923;DHT22;45778;51.142;3.732;2023-10-09T05:16:52;14.70;99.90
59923;DHT22;45778;51.142;3.732;2023-10-09T05:19:22;14.70;99.90
59923;DHT22;45778;51.142;3.732;2023-10-09T05:22:07;14.70;99.90
59923;DHT22;45778;51.142;3.732;2023-10-09T05:24:42;14.70;99.90
59923;DHT22;45778;51.142;3.732;2023-10-09T05:27:10;14.60;99.90
59923;DHT22;45778;51.142;3.732;2023-10-09T05:29:49;14.60;99.90
59923;DHT22;45778;51.142;3.732;2023-10-09T05:32:25;14.50;99.90
59923;DHT22;45778;51.142;3.732;2023-10-09T05:35:00;14.50;99.90
59923;DHT22;45778;51.142;3.732;2023-10-09T05:37:27;14.50;99.90
59923;DHT22;45778;51.142;3.732;2023-10-09T05:39:59;14.60;99.90
59923;DHT22;45778;51.142;3.732;2023-10-09T05:42:29;14.60;99.90
59923;DHT22;45778;51.142;3.732;2023-10-09T05:45:11;14.60;99.90
59923;DHT22;45778;51.142;3.732;2023-10-09T05:47:53;14.60;99.90
59923;DHT22;45778;51.142;3.732;2023-10-09T05:50:24;14.60;99.90
59923;DHT22;45778;51.142;3.732;2023-10-09T05:52:50;14.60;99.90
59923;DHT22;45778;51.142;3.732;2023-10-09T05:55:16;14.50;99.90
59923;DHT22;45778;51.142;3.732;2023-10-09T05:58:05;14.60;99.90
59923;DHT22;45778;51.142;3.732;2023-10-09T06:00:50;14.60;99.90
59923;DHT22;45778;51.142;3.732;2023-10-09T06:03:35;14.60;99.90
59923;DHT22;45778;51.142;3.732;2023-10-09T06:06:19;14.60;99.90
59923;DHT22;45778;51.142;3.732;2023-10-09T06:09:08;14.60;99.90
59923;DHT22;45778;51.142;3.732;2023-10-09T06:11:43;14.60;99.90
59923;DHT22;45778;51.142;3.732;2023-10-09T06:14:24;14.60;99.90
59923;DHT22;45778;51.142;3.732;2023-10-09T06:16:52;14.60;99.90
59923;DHT22;45778;51.142;3.732;2023-10-09T06:19:37;14.50;99.90
59923;DHT22;45778;51.142;3.732;2023-10-09T06:22:09;14.40;99.90
59923;DHT22;45778;51.142;3.732;2023-10-09T06:24:38;14.30;99.90
59923;DHT22;45778;51.142;3.732;2023-10-09T06:27:20;14.40;99.90
59923;DHT22;45778;51.142;3.732;2023-10-09T06:29:50;14.40;99.90
59923;DHT22;45778;51.142;3.732;2023-10-09T06:32:18;14.40;99.90
59923;DHT22;45778;51.142;3.732;2023-10-09T06:34:48;14.40;99.90
59923;DHT22;45778;51.142;3.732;2023-10-09T06:37:32;14.40;99.90
59923;DHT22;45778;51.142;3.732;2023-10-09T06:39:58;14.40;99.90
59923;DHT22;45778;51.142;3.732;2023-10-09T06:42:27;14.40;99.90
59923;DHT22;45778;51.142;3.732;2023-10-09T06:45:03;14.50;99.90
59923;DHT22;45778;51.142;3.732;2023-10-09T06:47:34;14.50;99.90
59923;DHT22;45778;51.142;3.732;2023-10-09T06:50:10;14.60;99.90
59923;DHT22;45778;51.142;3.732;2023-10-09T06:52:54;14.60;99.90
59923;DHT22;45778;51.142;3.732;2023-10-09T06:55:26;14.70;99.90
59923;DHT22;45778;51.142;3.732;2023-10-09T06:58:01;14.80;99.90
59923;DHT22;45778;51.142;3.732;2023-10-09T07:00:30;14.90;99.90
59923;DHT22;45778;51.142;3.732;2023-10-09T07:03:14;14.90;99.90
59923;DHT22;45778;51.142;3.732;2023-10-09T07:05:43;14.90;99.90
59923;DHT22;45778;51.142;3.732;2023-10-09T07:08:30;15.00;99.90
59923;DHT22;45778;51.142;3.732;2023-10-09T07:11:03;15.10;99.90
59923;DHT22;45778;51.142;3.732;2023-10-09T07:13:55;15.20;99.90
59923;DHT22;45778;51.142;3.732;2023-10-09T07:16:24;15.20;99.90
59923;DHT22;45778;51.142;3.732;2023-10-09T07:18:55;15.40;99.90
59923;DHT22;45778;51.142;3.732;2023-10-09T07:21:21;15.40;99.90
59923;DHT22;45778;51.142;3.732;2023-10-09T07:23:54;15.50;99.90
59923;DHT22;45778;51.142;3.732;2023-10-09T07:26:22;15.60;99.90
59923;DHT22;45778;51.142;3.732;2023-10-09T07:29:03;15.70;99.90
59923;DHT22;45778;51.142;3.732;2023-10-09T07:31:48;15.80;99.90
59923;DHT22;45778;51.142;3.732;2023-10-09T07:34:23;15.80;99.90
59923;DHT22;45778;51.142;3.732;2023-10-09T07:37:27;15.70;99.90
59923;DHT22;45778;51.142;3.732;2023-10-09T07:40:02;15.70;99.90
59923;DHT22;45778;51.142;3.732;2023-10-09T07:42:33;15.70;99.90
59923;DHT22;45778;51.142;3.732;2023-10-09T07:45:19;15.80;99.90
59923;DHT22;45778;51.142;3.732;2023-10-09T07:47:49;15.70;99.90
59923;DHT22;45778;51.142;3.732;2023-10-09T07:50:37;15.80;99.90
59923;DHT22;45778;51.142;3.732;2023-10-09T07:53:06;15.90;99.90
59923;DHT22;45778;51.142;3.732;2023-10-09T07:55:51;15.90;99.90
59923;DHT22;45778;51.142;3.732;2023-10-09T07:58:21;16.00;99.90
59923;DHT22;45778;51.142;3.732;2023-10-09T08:00:57;16.10;99.90
59923;DHT22;45778;51.142;3.732;2023-10-09T08:03:36;16.10;99.90
59923;DHT22;45778;51.142;3.732;2023-10-09T08:06:03;16.20;99.90
59923;DHT22;45778;51.142;3.732;2023-10-09T08:08:47;16.30;99.90
59923;DHT22;45778;51.142;3.732;2023-10-09T08:11:30;16.40;99.90
59923;DHT22;45778;51.142;3.732;2023-10-09T08:14:06;16.40;99.90
59923;DHT22;45778;51.142;3.732;2023-10-09T08:16:50;16.50;99.90
59923;DHT22;45778;51.142;3.732;2023-10-09T08:19:31;16.70;99.90
59923;DHT22;45778;51.142;3.732;2023-10-09T08:22:00;16.70;99.90
59923;DHT22;45778;51.142;3.732;2023-10-09T08:25:04;16.80;99.90
59923;DHT22;45778;51.142;3.732;2023-10-09T08:27:30;16.90;99.90
59923;DHT22;45778;51.142;3.732;2023-10-09T08:30:00;17.10;99.90
59923;DHT22;45778;51.142;3.732;2023-10-09T08:32:38;17.20;99.90
59923;DHT22;45778;51.142;3.732;2023-10-09T08:35:05;17.30;99.90
59923;DHT22;45778;51.142;3.732;2023-10-09T08:37:45;17.30;99.90
59923;DHT22;45778;51.142;3.732;2023-10-09T08:40:14;17.30;99.90
59923;DHT22;45778;51.142;3.732;2023-10-09T08:42:47;17.40;99.90
59923;DHT22;45778;51.142;3.732;2023-10-09T08:45:16;17.50;99.90
59923;DHT22;45778;51.142;3.732;2023-10-09T08:47:48;17.50;99.90
59923;DHT22;45778;51.142;3.732;2023-10-09T08:50:15;17.40;99.90
59923;DHT22;45778;51.142;3.732;2023-10-09T08:52:40;17.40;99.90
59923;DHT22;45778;51.142;3.732;2023-10-09T08:55:06;17.50;99.90
59923;DHT22;45778;51.142;3.732;2023-10-09T08:57:32;17.60;99.90
59923;DHT22;45778;51.142;3.732;2023-10-09T08:59:59;17.80;99.90
59923;DHT22;45778;51.142;3.732;2023-10-09T09:02:24;17.80;99.90
59923;DHT22;45778;51.142;3.732;2023-10-09T09:04:50;17.90;99.90
59923;DHT22;45778;51.142;3.732;2023-10-09T09:07:28;17.90;99.90
59923;DHT22;45778;51.142;3.732;2023-10-09T09:09:57;18.00;99.90
59923;DHT22;45778;51.142;3.732;2023-10-09T09:12:27;18.10;99.90
59923;DHT22;45778;51.142;3.732;2023-10-09T09:14:56;18.30;99.90
59923;DHT22;45778;51.142;3.732;2023-10-09T09:17:25;18.40;99.90
59923;DHT22;45778;51.142;3.732;2023-10-09T09:19:56;18.40;99.90
59923;DHT22;45778;51.142;3.732;2023-10-09T09:22:23;18.50;99.90
59923;DHT22;45778;51.142;3.732;2023-10-09T09:24:58;18.50;99.90
59923;DHT22;45778;51.142;3.732;2023-10-09T09:27:47;18.40;99.90
59923;DHT22;45778;51.142;3.732;2023-10-09T09:30:26;18.40;99.90
59923;DHT22;45778;51.142;3.732;2023-10-09T09:33:04;18.50;99.90
59923;DHT22;45778;51.142;3.732;2023-10-09T09:36:03;18.60;99.90
59923;DHT22;45778;51.142;3.732;2023-10-09T09:38:31;18.60;99.90
59923;DHT22;45778;51.142;3.732;2023-10-09T09:41:17;18.80;99.90
59923;DHT22;45778;51.142;3.732;2023-10-09T09:43:56;18.70;99.90
59923;DHT22;45778;51.142;3.732;2023-10-09T09:46:27;18.80;99.90
59923;DHT22;45778;51.142;3.732;2023-10-09T09:49:03;19.00;99.90
59923;DHT22;45778;51.142;3.732;2023-10-09T09:51:35;19.10;99.90
59923;DHT22;45778;51.142;3.732;2023-10-09T09:54:01;19.10;99.90
59923;DHT22;45778;51.142;3.732;2023-10-09T09:56:29;19.10;99.90
59923;DHT22;45778;51.142;3.732;2023-10-09T09:58:57;19.10;99.90
59923;DHT22;45778;51.142;3.732;2023-10-09T10:01:30;19.10;99.90
59923;DHT22;45778;51.142;3.732;2023-10-09T10:04:11;19.20;99.90
59923;DHT22;45778;51.142;3.732;2023-10-09T10:06:40;19.20;99.90
59923;DHT22;45778;51.142;3.732;2023-10-09T10:09:10;19.30;99.90
59923;DHT22;45778;51.142;3.732;2023-10-09T10:11:46;19.10;99.90
59923;DHT22;45778;51.142;3.732;2023-10-09T10:14:14;19.00;99.90
59923;DHT22;45778;51.142;3.732;2023-10-09T10:17:04;19.00;99.90
59923;DHT22;45778;51.142;3.732;2023-10-09T10:20:08;19.10;99.90
59923;DHT22;45778;51.142;3.732;2023-10-09T10:22:43;19.10;99.90
59923;DHT22;45778;51.142;3.732;2023-10-09T10:25:33;19.40;99.90
59923;DHT22;45778;51.142;3.732;2023-10-09T10:28:23;19.50;99.90
59923;DHT22;45778;51.142;3.732;2023-10-09T10:31:08;19.50;99.90
59923;DHT22;45778;51.142;3.732;2023-10-09T10:36:22;19.60;99.90
59923;DHT22;45778;51.142;3.732;2023-10-09T10:39:08;19.60;99.90
59923;DHT22;45778;51.142;3.732;2023-10-09T10:41:58;19.70;99.90
59923;DHT22;45778;51.142;3.732;2023-10-09T10:44:31;19.90;99.90
59923;DHT22;45778;51.142;3.732;2023-10-09T10:47:01;20.00;99.90
59923;DHT22;45778;51.142;3.732;2023-10-09T10:49:28;20.10;99.90
59923;DHT22;45778;51.142;3.732;2023-10-09T10:52:02;20.00;99.90
59923;DHT22;45778;51.142;3.732;2023-10-09T10:54:49;20.20;99.90
59923;DHT22;45778;51.142;3.732;2023-10-09T10:57:43;20.20;99.90
59923;DHT22;45778;51.142;3.732;2023-10-09T11:00:31;20.10;99.90
59923;DHT22;45778;51.142;3.732;2023-10-09T11:03:21;20.10;99.90
59923;DHT22;45778;51.142;3.732;2023-10-09T11:06:02;20.20;99.90
59923;DHT22;45778;51.142;3.732;2023-10-09T11:08:49;20.30;99.90
59923;DHT22;45778;51.142;3.732;2023-10-09T11:11:23;20.30;99.90
59923;DHT22;45778;51.142;3.732;2023-10-09T11:13:48;20.40;99.90
59923;DHT22;45778;51.142;3.732;2023-10-09T11:16:24;20.50;99.90
59923;DHT22;45778;51.142;3.732;2023-10-09T11:19:13;20.60;99.90
59923;DHT22;45778;51.142;3.732;2023-10-09T11:21:55;20.60;99.90
59923;DHT22;45778;51.142;3.732;2023-10-09T11:24:47;20.70;99.90
59923;DHT22;45778;51.142;3.732;2023-10-09T11:27:25;20.80;99.90
59923;DHT22;45778;51.142;3.732;2023-10-09T11:29:54;20.80;99.90
59923;DHT22;45778;51.142;3.732;2023-10-09T11:32:21;20.80;99.90
59923;DHT22;45778;51.142;3.732;2023-10-09T11:35:10;21.10;99.90
59923;DHT22;45778;51.142;3.732;2023-10-09T11:37:37;21.10;99.90
59923;DHT22;45778;51.142;3.732;2023-10-09T11:40:27;21.20;99.90
59923;DHT22;45778;51.142;3.732;2023-10-09T11:43:00;21.30;99.90
59923;DHT22;45778;51.142;3.732;2023-10-09T11:45:27;21.40;99.90
59923;DHT22;45778;51.142;3.732;2023-10-09T11:48:16;21.70;99.90
59923;DHT22;45778;51.142;3.732;2023-10-09T11:50:59;21.70;99.90
59923;DHT22;45778;51.142;3.732;2023-10-09T11:53:28;22.10;99.90
59923;DHT22;45778;51.142;3.732;2023-10-09T11:55:53;22.30;99.90
59923;DHT22;45778;51.142;3.732;2023-10-09T11:58:20;22.40;99.90
59923;DHT22;45778;51.142;3.732;2023-10-09T12:00:57;22.70;99.90
59923;DHT22;45778;51.142;3.732;2023-10-09T12:03:28;22.80;99.90
59923;DHT22;45778;51.142;3.732;2023-10-09T12:05:59;22.90;99.90
59923;DHT22;45778;51.142;3.732;2023-10-09T12:08:38;23.00;99.90
59923;DHT22;45778;51.142;3.732;2023-10-09T12:11:06;23.20;99.90
59923;DHT22;45778;51.142;3.732;2023-10-09T12:13:37;23.10;99.90
59923;DHT22;45778;51.142;3.732;2023-10-09T12:16:09;22.60;99.90
59923;DHT22;45778;51.142;3.732;2023-10-09T12:18:35;22.50;99.90
59923;DHT22;45778;51.142;3.732;2023-10-09T12:21:02;22.70;99.90
59923;DHT22;45778;51.142;3.732;2023-10-09T12:23:30;22.50;99.90
59923;DHT22;45778;51.142;3.732;2023-10-09T12:26:04;22.40;99.90
59923;DHT22;45778;51.142;3.732;2023-10-09T12:28:30;22.50;99.90
59923;DHT22;45778;51.142;3.732;2023-10-09T12:30:59;22.40;99.90
59923;DHT22;45778;51.142;3.732;2023-10-09T12:33:29;22.50;99.90
59923;DHT22;45778;51.142;3.732;2023-10-09T12:35:57;22.50;99.90
59923;DHT22;45778;51.142;3.732;2023-10-09T12:38:27;22.30;99.90
59923;DHT22;45778;51.142;3.732;2023-10-09T12:41:07;22.50;99.90
59923;DHT22;45778;51.142;3.732;2023-10-09T12:43:50;22.60;99.90
59923;DHT22;45778;51.142;3.732;2023-10-09T12:46:20;22.80;99.90
59923;DHT22;45778;51.142;3.732;2023-10-09T12:48:49;22.50;99.90
59923;DHT22;45778;51.142;3.732;2023-10-09T12:51:15;22.80;99.90
59923;DHT22;45778;51.142;3.732;2023-10-09T12:53:44;22.70;99.90
59923;DHT22;45778;51.142;3.732;2023-10-09T12:56:11;22.80;99.90
59923;DHT22;45778;51.142;3.732;2023-10-09T12:58:40;23.00;99.90
59923;DHT22;45778;51.142;3.732;2023-10-09T13:01:18;23.60;99.90
59923;DHT22;45778;51.142;3.732;2023-10-09T13:03:45;24.20;99.90
59923;DHT22;45778;51.142;3.732;2023-10-09T13:06:15;24.40;99.90
59923;DHT22;45778;51.142;3.732;2023-10-09T13:08:41;24.00;99.90
59923;DHT22;45778;51.142;3.732;2023-10-09T13:11:09;23.70;99.90
59923;DHT22;45778;51.142;3.732;2023-10-09T13:13:37;23.40;99.90
59923;DHT22;45778;51.142;3.732;2023-10-09T13:16:11;23.10;99.90
59923;DHT22;45778;51.142;3.732;2023-10-09T13:18:40;23.30;99.90
59923;DHT22;45778;51.142;3.732;2023-10-09T13:21:06;23.10;99.90
59923;DHT22;45778;51.142;3.732;2023-10-09T13:23:31;23.00;99.90
59923;DHT22;45778;51.142;3.732;2023-10-09T13:26:13;22.60;99.90
59923;DHT22;45778;51.142;3.732;2023-10-09T13:28:49;22.50;99.90
59923;DHT22;45778;51.142;3.732;2023-10-09T13:31:15;22.20;99.90
59923;DHT22;45778;51.142;3.732;2023-10-09T13:33:42;22.30;99.90
59923;DHT22;45778;51.142;3.732;2023-10-09T13:36:12;22.40;99.90
59923;DHT22;45778;51.142;3.732;2023-10-09T13:41:23;22.50;99.90
59923;DHT22;45778;51.142;3.732;2023-10-09T13:43:55;22.50;99.90
59923;DHT22;45778;51.142;3.732;2023-10-09T13:46:23;22.50;99.90
59923;DHT22;45778;51.142;3.732;2023-10-09T13:48:49;22.50;99.90
59923;DHT22;45778;51.142;3.732;2023-10-09T13:51:18;22.50;99.90
59923;DHT22;45778;51.142;3.732;2023-10-09T13:53:45;22.40;99.90
59923;DHT22;45778;51.142;3.732;2023-10-09T13:56:16;22.30;99.90
59923;DHT22;45778;51.142;3.732;2023-10-09T13:58:49;22.20;99.90
59923;DHT22;45778;51.142;3.732;2023-10-09T14:01:16;22.10;99.90
59923;DHT22;45778;51.142;3.732;2023-10-09T14:03:58;22.00;99.90
59923;DHT22;45778;51.142;3.732;2023-10-09T14:06:25;22.00;99.90
59923;DHT22;45778;51.142;3.732;2023-10-09T14:09:02;22.00;99.90
59923;DHT22;45778;51.142;3.732;2023-10-09T14:11:33;21.80;99.90
59923;DHT22;45778;51.142;3.732;2023-10-09T14:14:06;21.80;99.90
59923;DHT22;45778;51.142;3.732;2023-10-09T14:16:36;21.80;99.90
59923;DHT22;45778;51.142;3.732;2023-10-09T14:19:01;21.70;99.90
59923;DHT22;45778;51.142;3.732;2023-10-09T14:21:33;21.80;99.90
59923;DHT22;45778;51.142;3.732;2023-10-09T14:24:06;22.00;99.90
59923;DHT22;45778;51.142;3.732;2023-10-09T14:26:42;22.20;99.90
59923;DHT22;45778;51.142;3.732;2023-10-09T14:29:11;22.30;99.90
59923;DHT22;45778;51.142;3.732;2023-10-09T14:31:45;22.40;99.90
59923;DHT22;45778;51.142;3.732;2023-10-09T14:34:14;22.20;99.90
59923;DHT22;45778;51.142;3.732;2023-10-09T14:36:40;22.10;99.90
59923;DHT22;45778;51.142;3.732;2023-10-09T14:39:09;22.50;99.90
59923;DHT22;45778;51.142;3.732;2023-10-09T14:41:39;22.80;99.90
59923;DHT22;45778;51.142;3.732;2023-10-09T14:44:06;22.70;99.90
59923;DHT22;45778;51.142;3.732;2023-10-09T14:46:31;22.50;99.90
59923;DHT22;45778;51.142;3.732;2023-10-09T14:48:57;22.30;99.90
59923;DHT22;45778;51.142;3.732;2023-10-09T14:51:24;21.80;99.90
59923;DHT22;45778;51.142;3.732;2023-10-09T14:53:56;21.60;99.90
59923;DHT22;45778;51.142;3.732;2023-10-09T14:56:28;21.60;99.90
59923;DHT22;45778;51.142;3.732;2023-10-09T14:58:59;21.60;99.90
59923;DHT22;45778;51.142;3.732;2023-10-09T15:01:26;21.60;99.90
59923;DHT22;45778;51.142;3.732;2023-10-09T15:03:58;22.10;99.90
59923;DHT22;45778;51.142;3.732;2023-10-09T15:06:25;22.90;99.90
59923;DHT22;45778;51.142;3.732;2023-10-09T15:08:56;23.90;99.90
59923;DHT22;45778;51.142;3.732;2023-10-09T15:11:26;24.50;98.90
59923;DHT22;45778;51.142;3.732;2023-10-09T15:13:55;25.30;98.10
59923;DHT22;45778;51.142;3.732;2023-10-09T15:16:22;25.30;97.20
59923;DHT22;45778;51.142;3.732;2023-10-09T15:18:52;25.80;96.60
59923;DHT22;45778;51.142;3.732;2023-10-09T15:21:21;26.00;96.50
59923;DHT22;45778;51.142;3.732;2023-10-09T15:23:49;26.30;95.50
59923;DHT22;45778;51.142;3.732;2023-10-09T15:26:18;26.60;95.30
59923;DHT22;45778;51.142;3.732;2023-10-09T15:28:44;26.20;94.90
59923;DHT22;45778;51.142;3.732;2023-10-09T15:31:09;26.00;95.10
59923;DHT22;45778;51.142;3.732;2023-10-09T15:33:36;25.60;95.10
59923;DHT22;45778;51.142;3.732;2023-10-09T15:36:12;25.20;95.80
59923;DHT22;45778;51.142;3.732;2023-10-09T15:38:38;25.10;95.40
59923;DHT22;45778;51.142;3.732;2023-10-09T15:41:04;24.30;95.70
59923;DHT22;45778;51.142;3.732;2023-10-09T15:43:32;23.90;96.40
59923;DHT22;45778;51.142;3.732;2023-10-09T15:45:59;23.80;96.70
59923;DHT22;45778;51.142;3.732;2023-10-09T15:48:25;24.10;96.30
59923;DHT22;45778;51.142;3.732;2023-10-09T15:50:50;24.00;96.60
59923;DHT22;45778;51.142;3.732;2023-10-09T15:53:18;24.00;96.70
59923;DHT22;45778;51.142;3.732;2023-10-09T15:55:44;24.00;96.70
59923;DHT22;45778;51.142;3.732;2023-10-09T15:58:10;24.40;96.70
59923;DHT22;45778;51.142;3.732;2023-10-09T16:00:36;24.90;96.60
59923;DHT22;45778;51.142;3.732;2023-10-09T16:03:04;25.00;96.00
59923;DHT22;45778;51.142;3.732;2023-10-09T16:05:30;24.90;96.00
59923;DHT22;45778;51.142;3.732;2023-10-09T16:08:01;24.80;96.50
59923;DHT22;45778;51.142;3.732;2023-10-09T16:10:29;24.80;96.40
59923;DHT22;45778;51.142;3.732;2023-10-09T16:12:56;24.80;96.80
59923;DHT22;45778;51.142;3.732;2023-10-09T16:15:23;24.30;96.90